TimeIST,TemperatureF,Dew PointF,Humidity,Sea Level PressureIn,VisibilityMPH,Wind Direction,Wind SpeedMPH,Gust SpeedMPH,PrecipitationIn,Events,Conditions,WindDirDegrees,DateUTC
12:00 AM,78.8,73.4,83,29.86,2.2,East,5.8,-,N/A,,Haze,80,2013-10-02 18:30:00
1:00 AM,78.8,73.4,83,29.86,2.2,ENE,4.6,-,N/A,,Haze,70,2013-10-02 19:30:00
2:00 AM,77.0,73.4,89,29.83,2.2,East,5.8,-,N/A,,Scattered Clouds,90,2013-10-02 20:30:00
3:00 AM,77.0,71.6,83,29.83,2.2,ENE,5.8,-,N/A,,Scattered Clouds,70,2013-10-02 21:30:00
4:00 AM,77.0,71.6,83,29.83,2.2,ENE,4.6,-,N/A,,Scattered Clouds,60,2013-10-02 22:30:00
5:00 AM,77.0,69.8,78,29.83,2.2,ENE,5.8,-,N/A,,Scattered Clouds,60,2013-10-02 23:30:00
5:30 AM,77,69,71,29.77,1,ENE,5.8,,,,Mist,70,2013-10-03 00:00:00
6:00 AM,75.2,69.8,83,29.83,2.2,ENE,5.8,-,N/A,,Scattered Clouds,70,2013-10-03 00:30:00
7:00 AM,77.0,69.8,78,29.86,2.5,NE,5.8,-,N/A,,Partly Cloudy,50,2013-10-03 01:30:00
7:30 AM,77.0,69.8,78,29.86,2.5,NE,6.9,-,N/A,,Partly Cloudy,50,2013-10-03 02:00:00
8:00 AM,77.0,69.8,78,29.89,2.5,East,9.2,-,N/A,,Partly Cloudy,80,2013-10-03 02:30:00
8:30 AM,79,69,64,29.81,2,ENE,11.5,,,,Haze,70,2013-10-03 03:00:00
9:00 AM,78.8,69.8,74,29.89,2.5,ENE,11.5,-,N/A,,Haze,70,2013-10-03 03:30:00
10:00 AM,82.4,69.8,66,29.89,2.5,East,12.7,-,N/A,,Haze,80,2013-10-03 04:30:00
11:00 AM,82.4,69.8,66,29.89,2.5,East,12.7,-,N/A,,Haze,80,2013-10-03 05:30:00
12:00 PM,86.0,69.8,58,29.86,2.5,East,13.8,-,N/A,,Haze,80,2013-10-03 06:30:00
1:00 PM,84.2,69.8,62,29.83,2.5,East,12.7,-,N/A,,Haze,80,2013-10-03 07:30:00
2:00 PM,84.2,69.8,62,29.80,2.5,East,11.5,-,N/A,,Haze,80,2013-10-03 08:30:00
2:30 PM,86,76,64,29.71,2,East,12.7,,,,Haze,90,2013-10-03 09:00:00
3:00 PM,86.0,69.8,58,29.77,2.5,ENE,11.5,-,N/A,,Haze,70,2013-10-03 09:30:00
4:00 PM,84.2,69.8,62,29.74,2.5,ENE,12.7,-,N/A,,Haze,70,2013-10-03 10:30:00
5:00 PM,84.2,69.8,62,29.74,2.5,East,11.5,-,N/A,,Haze,80,2013-10-03 11:30:00
5:30 PM,80.6,69.8,70,29.77,2.5,East,10.4,-,N/A,,Haze,100,2013-10-03 12:00:00
6:00 PM,80.6,69.8,70,29.77,2.5,East,10.4,-,N/A,,Haze,100,2013-10-03 12:30:00
7:00 PM,78.8,69.8,74,29.77,2.5,East,10.4,-,N/A,,Haze,80,2013-10-03 13:30:00
8:00 PM,75.2,68.0,78,29.80,2.5,ESE,9.2,-,N/A,,Haze,110,2013-10-03 14:30:00
9:00 PM,75.2,68.0,78,29.83,1.9,ENE,4.6,-,N/A,,Haze,60,2013-10-03 15:30:00
10:00 PM,75.2,69.8,83,29.83,1.9,East,10.4,-,N/A,,Haze,80,2013-10-03 16:30:00
11:00 PM,73.4,68.0,83,29.83,1.9,East,6.9,-,N/A,,Haze,90,2013-10-03 17:30:00